Batavia, Ohio
Current Conditions -  °F | °C
As of 7:53 PM on Sunday 23 Nov 2014 (Local Time) from KLUK Reporting Station
Heavy Rain Heavy Rain  
Wind Chill: 56°   Ceiling: 3500
Heat Index: 56°   Visibility: 3mi
Dew Point: 56°   Wind: 15mph
Humidity: 100%   Direction: 140°SE
Pressure: 29.44"   Gusts: 28mph
Location:  39.08°N, 84.18°W
Report Text: KLUK 240053Z 14013G24KT 3SM +RA BR SCT021 BKN035 OVC050 13/13 A2944 RMK AO2 PK WND 14026/2357 SLP968 P0037 T01330133
Loading
Personal Weather Stations






























Interactive Weather Map New forecast layout! Learn more

10-Day Weather Forecast

Advertisements
Track Severe Weather on mobile